Time;durP1;ratioP1;P1;durP2;ratioP2;P2;SDS_P1;SDS_P2;PMS_P1;PMS_P2;Temp;Humidity;BMP_temperature;BMP_pressure;BME280_temperature;BME280_humidity;BME280_pressure;Samples;Min_cycle;Max_cycle;Signal;HPM_P1;HPM_P2
2023/02/27 00:00:52;;;;;;;2.27;0.80;;;2.50;99.90;;;;;;5034340;28;20199;-61
2023/02/27 00:03:19;;;;;;;2.27;1.13;;;2.40;99.90;;;;;;5040044;28;20228;-60
2023/02/27 00:05:46;;;;;;;4.93;1.40;;;2.50;99.90;;;;;;5034507;28;20297;-59
2023/02/27 00:08:13;;;;;;;3.87;1.30;;;2.50;99.90;;;;;;5036408;28;20239;-60
2023/02/27 00:10:40;;;;;;;5.67;1.10;;;2.40;99.90;;;;;;5036699;28;20195;-60
2023/02/27 00:13:07;;;;;;;2.73;1.40;;;2.40;99.90;;;;;;5039316;28;20206;-61
2023/02/27 00:15:33;;;;;;;3.93;1.50;;;2.50;99.90;;;;;;5039167;28;20255;-60
2023/02/27 00:18:00;;;;;;;2.87;1.40;;;2.40;99.90;;;;;;5037394;28;20209;-61
2023/02/27 00:20:27;;;;;;;1.93;1.20;;;2.50;99.90;;;;;;5039508;28;20652;-59
2023/02/27 00:22:54;;;;;;;4.00;1.00;;;2.30;99.90;;;;;;5038754;28;20246;-62
2023/02/27 00:25:21;;;;;;;2.73;0.93;;;2.30;99.90;;;;;;5039315;28;20564;-60
2023/02/27 00:27:47;;;;;;;3.07;1.00;;;2.30;99.90;;;;;;5034702;28;20215;-61
2023/02/27 00:30:15;;;;;;;1.30;0.90;;;2.40;99.90;;;;;;5036587;28;20688;-60
2023/02/27 00:32:42;;;;;;;3.07;1.10;;;2.30;99.90;;;;;;5035782;28;20286;-60
2023/02/27 00:35:10;;;;;;;2.33;1.17;;;2.30;99.90;;;;;;5035204;28;20204;-60
2023/02/27 00:37:38;;;;;;;2.80;1.20;;;2.30;99.90;;;;;;5036324;28;20248;-60
2023/02/27 00:40:06;;;;;;;2.20;1.30;;;2.20;99.90;;;;;;5037220;28;20204;-60
2023/02/27 00:42:34;;;;;;;4.73;1.23;;;2.20;99.90;;;;;;5031182;28;20216;-59
2023/02/27 00:45:02;;;;;;;4.03;1.17;;;2.30;99.90;;;;;;5040034;28;20223;-60
2023/02/27 00:47:28;;;;;;;3.23;1.10;;;2.20;99.90;;;;;;5035164;28;20314;-62
2023/02/27 00:49:55;;;;;;;2.80;1.30;;;2.20;99.90;;;;;;5033139;28;20223;-62
2023/02/27 00:52:22;;;;;;;6.47;1.37;;;2.30;99.90;;;;;;5032556;28;20215;-61
2023/02/27 00:54:49;;;;;;;4.00;1.40;;;2.30;99.90;;;;;;5036598;28;20286;-61
2023/02/27 00:57:16;;;;;;;3.23;1.40;;;2.20;99.90;;;;;;5036842;28;20233;-61
2023/02/27 00:59:43;;;;;;;4.40;1.40;;;2.30;99.90;;;;;;5036855;28;21078;-59
2023/02/27 01:02:10;;;;;;;2.63;1.07;;;2.20;99.90;;;;;;5035848;28;20219;-59
2023/02/27 01:04:38;;;;;;;2.47;1.50;;;2.20;99.90;;;;;;5034443;28;20262;-59
2023/02/27 01:07:04;;;;;;;4.00;1.67;;;2.30;99.90;;;;;;5032820;28;20323;-61
2023/02/27 01:09:31;;;;;;;6.87;1.60;;;2.10;99.90;;;;;;5033492;28;20773;-59
2023/02/27 01:11:58;;;;;;;4.60;1.47;;;2.10;99.90;;;;;;5040038;28;20572;-59
2023/02/27 01:14:25;;;;;;;2.77;1.50;;;2.10;99.90;;;;;;5034634;28;20636;-60
2023/02/27 01:16:52;;;;;;;4.13;1.13;;;2.10;99.90;;;;;;5037299;28;20199;-59
2023/02/27 01:19:19;;;;;;;4.00;1.20;;;1.90;99.90;;;;;;5036746;28;20259;-61
2023/02/27 01:21:46;;;;;;;4.90;1.20;;;2.00;99.90;;;;;;5036440;28;20208;-60
2023/02/27 01:24:12;;;;;;;6.87;1.43;;;2.00;99.90;;;;;;5035863;28;20642;-62
2023/02/27 01:26:39;;;;;;;2.47;1.10;;;2.00;99.90;;;;;;5038949;28;20200;-61
2023/02/27 01:29:06;;;;;;;2.57;1.33;;;2.00;99.90;;;;;;5036580;28;20218;-60
2023/02/27 01:31:33;;;;;;;7.80;1.33;;;2.10;99.90;;;;;;5036725;28;20259;-60
2023/02/27 01:34:00;;;;;;;3.47;1.17;;;2.10;99.90;;;;;;5039141;28;20208;-60
2023/02/27 01:36:27;;;;;;;4.33;1.43;;;1.90;99.90;;;;;;5034245;28;20227;-61
2023/02/27 01:38:54;;;;;;;2.27;1.30;;;1.90;99.90;;;;;;5037509;28;20693;-60
2023/02/27 01:41:20;;;;;;;3.00;1.60;;;1.70;99.90;;;;;;5034338;28;20234;-60
2023/02/27 01:44:00;;;;;;;2.67;1.30;;;1.80;99.90;;;;;;5035325;28;20211;-60
2023/02/27 01:46:28;;;;;;;3.93;1.33;;;1.80;99.90;;;;;;5036353;28;20585;-60
2023/02/27 01:49:10;;;;;;;3.23;1.20;;;1.80;99.90;;;;;;5037352;28;20616;-60
2023/02/27 01:51:46;;;;;;;7.57;1.73;;;1.80;99.90;;;;;;5036961;28;20291;-59
2023/02/27 01:54:17;;;;;;;3.60;1.37;;;1.80;99.90;;;;;;5038631;28;20229;-60
2023/02/27 01:56:44;;;;;;;3.77;1.50;;;1.80;99.90;;;;;;5038004;28;20609;-60
2023/02/27 01:59:11;;;;;;;1.70;1.13;;;1.80;99.90;;;;;;5035166;28;20711;-60
2023/02/27 02:01:38;;;;;;;3.30;1.53;;;1.70;99.90;;;;;;5037286;28;20686;-60
2023/02/27 02:04:25;;;;;;;2.57;1.03;;;1.80;99.90;;;;;;5038989;28;20687;-60
2023/02/27 02:07:08;;;;;;;2.17;1.20;;;1.80;99.90;;;;;;5037231;28;20331;-60
2023/02/27 02:09:44;;;;;;;4.83;1.03;;;1.70;99.90;;;;;;5036941;28;20624;-61
2023/02/27 02:12:13;;;;;;;1.10;1.00;;;1.70;99.90;;;;;;5039388;28;20230;-60
2023/02/27 02:14:41;;;;;;;3.23;1.30;;;1.70;99.90;;;;;;5035721;28;20204;-60
2023/02/27 02:17:13;;;;;;;2.30;1.20;;;1.70;99.90;;;;;;5036447;28;20205;-60
2023/02/27 02:20:23;;;;;;;1.40;1.00;;;1.70;99.90;;;;;;5033617;28;20213;-60
2023/02/27 02:23:21;;;;;;;5.13;1.73;;;1.70;99.90;;;;;;5036097;28;20198;-60
2023/02/27 02:25:51;;;;;;;2.80;1.40;;;1.70;99.90;;;;;;5036865;28;20208;-60
2023/02/27 02:28:56;;;;;;;2.27;1.13;;;1.70;99.90;;;;;;5031175;28;20217;-60
2023/02/27 02:31:34;;;;;;;3.73;1.77;;;1.70;99.90;;;;;;5032222;28;20299;-60
2023/02/27 02:34:18;;;;;;;2.00;1.00;;;1.70;99.90;;;;;;5034757;28;20622;-59
2023/02/27 02:37:12;;;;;;;1.43;1.20;;;1.70;99.90;;;;;;5037666;28;20269;-59
2023/02/27 02:39:59;;;;;;;2.87;1.30;;;1.70;99.90;;;;;;5034221;28;20726;-60
2023/02/27 02:42:47;;;;;;;2.93;1.40;;;1.70;99.90;;;;;;5036216;28;20357;-59
2023/02/27 02:45:26;;;;;;;3.33;1.80;;;1.70;99.90;;;;;;5035680;28;20236;-60
2023/02/27 02:48:12;;;;;;;2.33;1.30;;;1.70;99.90;;;;;;5035592;28;20200;-62
2023/02/27 02:50:54;;;;;;;4.00;1.40;;;1.70;99.90;;;;;;5034924;28;20305;-60
2023/02/27 02:53:30;;;;;;;4.73;1.50;;;1.50;99.90;;;;;;5031496;28;20632;-59
2023/02/27 02:56:18;;;;;;;2.13;1.50;;;1.50;99.90;;;;;;5035363;28;20196;-61
2023/02/27 02:58:50;;;;;;;4.67;1.23;;;1.50;99.90;;;;;;5035057;28;20294;-63
2023/02/27 03:01:25;;;;;;;2.47;0.90;;;1.60;99.90;;;;;;5035358;28;20247;-61
2023/02/27 03:04:17;;;;;;;3.50;1.77;;;1.60;99.90;;;;;;5032182;28;20591;-67
2023/02/27 03:06:56;;;;;;;2.30;1.43;;;1.60;99.90;;;;;;5034612;28;20231;-59
2023/02/27 03:09:27;;;;;;;2.50;1.30;;;1.50;99.90;;;;;;5041141;28;20220;-59
2023/02/27 03:11:57;;;;;;;2.20;1.60;;;1.40;99.90;;;;;;5036571;28;20328;-62
2023/02/27 03:14:32;;;;;;;3.03;1.23;;;1.50;99.90;;;;;;5036395;28;20261;-60
2023/02/27 03:17:05;;;;;;;2.53;1.40;;;1.60;99.90;;;;;;5036233;28;20291;-59
2023/02/27 03:19:41;;;;;;;2.10;1.50;;;1.50;99.90;;;;;;5027236;28;20209;-61
2023/02/27 03:22:12;;;;;;;3.90;1.87;;;1.50;99.90;;;;;;5042198;28;20234;-60
2023/02/27 03:24:48;;;;;;;1.43;1.33;;;1.50;99.90;;;;;;5034584;28;20254;-60
2023/02/27 03:27:17;;;;;;;3.17;1.60;;;1.40;99.90;;;;;;5033734;28;20222;-60
2023/02/27 03:30:03;;;;;;;5.13;1.40;;;1.30;99.90;;;;;;5034227;28;20307;-60
2023/02/27 03:32:44;;;;;;;3.13;1.60;;;1.40;99.90;;;;;;5033473;28;20211;-60
2023/02/27 03:35:12;;;;;;;2.83;1.20;;;1.50;99.90;;;;;;5035421;28;20721;-60
2023/02/27 03:37:57;;;;;;;3.37;1.60;;;1.40;99.90;;;;;;5037372;28;20227;-62
2023/02/27 03:40:33;;;;;;;5.77;1.67;;;1.50;99.90;;;;;;5038614;28;20555;-59
2023/02/27 03:43:26;;;;;;;3.47;1.80;;;1.40;99.90;;;;;;5036134;28;20668;-60
2023/02/27 03:46:06;;;;;;;3.77;1.70;;;1.40;99.90;;;;;;5033725;28;20243;-60
2023/02/27 03:48:33;;;;;;;3.50;1.67;;;1.30;99.90;;;;;;5033783;28;20207;-62
2023/02/27 03:51:00;;;;;;;5.70;1.50;;;1.30;99.90;;;;;;5032886;28;20216;-60
2023/02/27 03:54:05;;;;;;;1.60;1.27;;;1.40;99.90;;;;;;5031068;28;20227;-61
2023/02/27 03:56:43;;;;;;;4.67;1.63;;;1.40;99.90;;;;;;5013538;28;20195;-61
2023/02/27 03:59:10;;;;;;;4.30;1.73;;;1.40;99.90;;;;;;5039652;28;20651;-60
2023/02/27 04:01:37;;;;;;;5.07;1.60;;;1.20;99.90;;;;;;5034254;28;20671;-59
2023/02/27 04:04:10;;;;;;;4.00;1.93;;;1.20;99.90;;;;;;5033388;28;20211;-59
2023/02/27 04:09:59;;;;;;;3.50;1.43;;;1.30;99.90;;;;;;5035052;28;20219;-60
2023/02/27 04:12:44;;;;;;;2.67;1.53;;;1.20;99.90;;;;;;5037094;28;20234;-60
2023/02/27 04:15:20;;;;;;;3.50;1.43;;;1.30;99.90;;;;;;5032944;28;20643;-60
2023/02/27 04:18:05;;;;;;;2.87;1.70;;;1.20;99.90;;;;;;5032176;28;20205;-60
2023/02/27 04:20:58;;;;;;;6.27;2.00;;;1.10;99.90;;;;;;5032008;28;20240;-60
2023/02/27 04:23:33;;;;;;;2.63;1.27;;;1.00;99.90;;;;;;5038337;28;20314;-60
2023/02/27 04:26:12;;;;;;;7.47;2.30;;;1.10;99.90;;;;;;5041078;28;20314;-61
2023/02/27 04:28:41;;;;;;;6.07;2.13;;;1.00;99.90;;;;;;5034095;28;20298;-60
2023/02/27 04:31:23;;;;;;;3.63;1.83;;;1.00;99.90;;;;;;5039345;28;20270;-59
2023/02/27 04:34:03;;;;;;;5.30;1.90;;;1.00;99.90;;;;;;5041272;28;20552;-62
2023/02/27 04:36:40;;;;;;;3.33;1.63;;;1.00;99.90;;;;;;5040020;28;20634;-59
2023/02/27 04:39:16;;;;;;;5.90;2.37;;;1.00;99.90;;;;;;5038273;28;20295;-59
2023/02/27 04:41:53;;;;;;;3.63;1.80;;;1.00;99.90;;;;;;5037583;28;20618;-60
2023/02/27 04:44:21;;;;;;;5.67;2.10;;;1.00;99.90;;;;;;5035709;28;20570;-59
2023/02/27 04:46:50;;;;;;;4.33;2.40;;;1.00;99.90;;;;;;5039536;28;20656;-61
2023/02/27 04:49:24;;;;;;;3.27;1.50;;;1.00;99.90;;;;;;5039520;28;20745;-60
2023/02/27 04:52:02;;;;;;;3.27;1.70;;;1.00;99.90;;;;;;5039914;28;20294;-61
2023/02/27 04:54:45;;;;;;;3.27;1.70;;;1.10;99.90;;;;;;5039076;28;20239;-59
2023/02/27 04:57:18;;;;;;;5.40;1.80;;;1.10;99.90;;;;;;5035369;28;20204;-59
2023/02/27 04:59:50;;;;;;;2.97;1.90;;;1.10;99.90;;;;;;5038402;28;20302;-60
2023/02/27 05:02:24;;;;;;;3.40;1.77;;;1.10;99.90;;;;;;5033900;28;20234;-60
2023/02/27 05:04:55;;;;;;;4.17;1.93;;;1.10;99.90;;;;;;5034099;28;20219;-60
2023/02/27 05:07:32;;;;;;;5.80;1.60;;;1.00;99.90;;;;;;5038817;28;20722;-61
2023/02/27 05:10:04;;;;;;;6.53;2.07;;;1.00;99.90;;;;;;5037783;28;20208;-60
2023/02/27 05:12:39;;;;;;;4.60;1.57;;;1.00;99.90;;;;;;5040710;28;20679;-61
2023/02/27 05:15:14;;;;;;;5.03;1.63;;;1.10;99.90;;;;;;5039103;28;20518;-61
2023/02/27 05:18:03;;;;;;;5.67;1.77;;;1.00;99.90;;;;;;5037383;28;20221;-62
2023/02/27 05:21:00;;;;;;;4.03;1.73;;;1.00;99.90;;;;;;5034508;28;20659;-60
2023/02/27 05:23:37;;;;;;;4.30;2.30;;;1.00;99.90;;;;;;5032601;28;20255;-60
2023/02/27 05:26:29;;;;;;;3.10;1.60;;;1.10;99.90;;;;;;5039429;28;20545;-60
2023/02/27 05:29:11;;;;;;;5.27;1.70;;;1.10;99.90;;;;;;5031655;28;20616;-60
2023/02/27 05:32:07;;;;;;;2.50;1.93;;;1.00;99.90;;;;;;5031069;28;20224;-61
2023/02/27 05:34:43;;;;;;;3.87;1.97;;;1.10;99.90;;;;;;5027420;28;20210;-60
2023/02/27 05:37:17;;;;;;;5.63;2.00;;;1.10;99.90;;;;;;5037909;28;20433;-60
2023/02/27 05:39:46;;;;;;;3.07;1.70;;;1.10;99.90;;;;;;5033484;28;20209;-60
2023/02/27 05:42:27;;;;;;;6.20;2.00;;;1.00;99.90;;;;;;5038245;28;20208;-60
2023/02/27 05:45:01;;;;;;;6.27;1.87;;;1.00;99.90;;;;;;5034467;28;20719;-61
2023/02/27 05:47:33;;;;;;;3.80;1.60;;;1.00;99.90;;;;;;5035190;28;20203;-60
2023/02/27 05:50:10;;;;;;;6.13;1.90;;;1.00;99.90;;;;;;5034773;28;20361;-61
2023/02/27 05:52:39;;;;;;;4.30;1.90;;;1.00;99.90;;;;;;5034762;28;20208;-60
2023/02/27 05:55:19;;;;;;;5.20;2.13;;;1.00;99.90;;;;;;5050668;28;20295;-60
2023/02/27 05:58:02;;;;;;;10.10;2.70;;;1.00;99.90;;;;;;5036710;28;20206;-60
2023/02/27 06:00:46;;;;;;;4.97;1.90;;;0.90;99.90;;;;;;5033997;28;20226;-61
2023/02/27 06:03:13;;;;;;;3.97;1.83;;;0.90;99.90;;;;;;5038609;28;20288;-61
2023/02/27 06:05:41;;;;;;;3.87;1.90;;;0.90;99.90;;;;;;5032870;28;20285;-61
2023/02/27 06:08:09;;;;;;;4.30;1.70;;;0.90;99.90;;;;;;5031465;28;20669;-60
2023/02/27 06:10:37;;;;;;;8.07;2.30;;;0.90;99.90;;;;;;5037554;28;20243;-60
2023/02/27 06:13:03;;;;;;;3.90;1.87;;;0.90;99.90;;;;;;5038436;28;20238;-61
2023/02/27 06:15:30;;;;;;;3.43;1.80;;;0.80;99.90;;;;;;5036026;28;20227;-60
2023/02/27 06:17:57;;;;;;;4.07;2.00;;;0.90;99.90;;;;;;5036136;28;20750;-60
2023/02/27 06:20:24;;;;;;;6.77;2.07;;;0.90;99.90;;;;;;5031465;28;20328;-63
2023/02/27 06:22:51;;;;;;;3.13;1.60;;;0.80;99.90;;;;;;5033500;28;20592;-61
2023/02/27 06:25:18;;;;;;;2.70;1.70;;;0.80;99.90;;;;;;5037257;28;20730;-61
2023/02/27 06:27:44;;;;;;;4.37;2.20;;;0.80;99.90;;;;;;5036205;28;20657;-61
2023/02/27 06:30:12;;;;;;;2.53;1.83;;;0.80;99.90;;;;;;5032673;28;20897;-60
2023/02/27 06:32:39;;;;;;;5.27;2.17;;;0.80;99.90;;;;;;5031362;28;20197;-61
2023/02/27 06:35:06;;;;;;;5.20;2.13;;;0.80;99.90;;;;;;5031384;28;20570;-60
2023/02/27 06:37:33;;;;;;;2.50;1.90;;;0.80;99.90;;;;;;5031955;28;20281;-60
2023/02/27 06:40:00;;;;;;;5.73;1.80;;;0.80;99.90;;;;;;5036372;28;20299;-60
2023/02/27 06:42:27;;;;;;;5.87;2.20;;;0.80;99.90;;;;;;5038335;28;20245;-60
2023/02/27 06:44:54;;;;;;;3.20;2.27;;;0.70;99.90;;;;;;5038146;28;20291;-60
2023/02/27 06:47:21;;;;;;;5.73;1.93;;;0.70;99.90;;;;;;5032290;28;20232;-60
2023/02/27 06:49:48;;;;;;;8.23;2.40;;;0.90;99.90;;;;;;5034362;28;20287;-60
2023/02/27 06:52:15;;;;;;;2.30;1.83;;;0.90;99.90;;;;;;4673911;28;10000091;-61
2023/02/27 06:54:42;;;;;;;5.97;2.40;;;0.90;99.90;;;;;;5017550;28;20660;-61
2023/02/27 06:57:08;;;;;;;5.33;2.07;;;0.80;99.90;;;;;;5029682;28;20205;-62
2023/02/27 06:59:35;;;;;;;2.00;1.60;;;0.90;99.90;;;;;;5029921;28;20609;-60
2023/02/27 07:02:02;;;;;;;6.03;1.73;;;0.90;99.90;;;;;;5028990;28;20208;-61
2023/02/27 07:04:29;;;;;;;2.67;1.77;;;1.10;99.90;;;;;;5032686;28;20205;-60
2023/02/27 07:06:56;;;;;;;6.17;2.27;;;1.20;99.90;;;;;;5033855;28;20268;-60
2023/02/27 07:09:43;;;;;;;3.30;2.10;;;1.10;99.90;;;;;;5032662;28;20204;-61
2023/02/27 07:12:10;;;;;;;4.27;1.77;;;1.10;99.90;;;;;;5035065;28;20623;-61
2023/02/27 07:14:37;;;;;;;6.87;2.30;;;1.10;99.90;;;;;;5034432;28;20239;-61
2023/02/27 07:17:04;;;;;;;2.47;1.83;;;1.20;99.90;;;;;;5030939;28;20196;-60
2023/02/27 07:19:34;;;;;;;6.37;2.30;;;1.30;99.90;;;;;;5033373;28;20204;-61
2023/02/27 07:22:02;;;;;;;3.97;1.87;;;1.40;99.90;;;;;;5034266;28;20293;-61
2023/02/27 07:24:29;;;;;;;4.30;2.23;;;1.50;99.90;;;;;;5033276;28;20201;-60
2023/02/27 07:26:55;;;;;;;4.80;1.83;;;1.50;99.90;;;;;;5032424;28;20263;-60
2023/02/27 07:29:22;;;;;;;4.37;1.77;;;1.70;99.90;;;;;;5031431;28;20298;-60
2023/02/27 07:31:49;;;;;;;7.47;1.70;;;1.90;99.90;;;;;;5033837;28;20603;-61
2023/02/27 07:34:16;;;;;;;3.00;2.00;;;2.00;99.90;;;;;;5029953;28;20211;-62
2023/02/27 07:36:43;;;;;;;4.07;1.87;;;2.10;99.90;;;;;;5030838;28;20944;-60
2023/02/27 07:39:11;;;;;;;2.17;1.50;;;2.30;99.90;;;;;;5025130;28;20291;-59
2023/02/27 07:41:39;;;;;;;4.60;2.23;;;2.30;99.90;;;;;;5030342;28;20231;-60
2023/02/27 07:44:07;;;;;;;3.33;2.10;;;2.60;99.90;;;;;;5031296;28;20432;-65
2023/02/27 07:46:34;;;;;;;5.23;2.00;;;2.90;99.90;;;;;;5043048;28;20254;-60
2023/02/27 07:49:02;;;;;;;4.63;1.67;;;2.90;99.90;;;;;;5032392;28;20607;-61
2023/02/27 07:51:28;;;;;;;3.20;2.20;;;2.80;99.90;;;;;;5020934;28;20221;-61
2023/02/27 07:53:57;;;;;;;3.37;1.80;;;2.90;99.90;;;;;;5019488;28;20270;-60
2023/02/27 07:56:26;;;;;;;2.97;1.60;;;3.10;99.90;;;;;;5029182;28;20296;-61
2023/02/27 07:58:53;;;;;;;5.40;1.97;;;3.20;99.90;;;;;;5021474;28;20251;-61
2023/02/27 08:01:20;;;;;;;3.73;1.80;;;3.40;99.90;;;;;;5030358;28;20971;-59
2023/02/27 08:03:47;;;;;;;5.33;2.30;;;3.70;99.90;;;;;;5032964;28;20652;-60
2023/02/27 08:06:14;;;;;;;3.10;2.20;;;3.70;99.90;;;;;;5031592;28;20206;-60
2023/02/27 08:08:41;;;;;;;2.77;1.87;;;3.80;99.90;;;;;;5030855;28;20288;-60
2023/02/27 08:11:08;;;;;;;3.93;1.57;;;4.30;99.90;;;;;;5034353;28;20674;-60
2023/02/27 08:13:35;;;;;;;3.40;1.97;;;4.70;99.90;;;;;;5028068;28;20790;-61
2023/02/27 08:16:22;;;;;;;4.97;1.73;;;5.00;99.90;;;;;;5030090;28;21138;-62
2023/02/27 08:18:49;;;;;;;6.30;1.77;;;5.10;99.90;;;;;;5026674;28;20192;-60
2023/02/27 08:21:16;;;;;;;3.20;2.03;;;4.90;99.90;;;;;;5025830;28;20313;-62
2023/02/27 08:23:43;;;;;;;3.93;1.77;;;5.30;99.90;;;;;;5030322;28;20204;-61
2023/02/27 08:26:09;;;;;;;3.93;2.30;;;5.40;99.90;;;;;;5027561;28;20224;-61
2023/02/27 08:28:36;;;;;;;6.53;2.33;;;5.40;99.90;;;;;;5028888;28;20721;-60
2023/02/27 08:31:04;;;;;;;4.05;2.28;;;5.40;99.90;;;;;;5015377;28;20493;-61
2023/02/27 08:33:31;;;;;;;4.10;1.70;;;6.40;99.90;;;;;;5022542;28;20717;-60
2023/02/27 08:35:58;;;;;;;3.13;1.60;;;7.20;99.90;;;;;;5020934;28;20327;-60
2023/02/27 08:38:24;;;;;;;5.03;2.10;;;6.70;99.90;;;;;;5027442;28;20193;-60
2023/02/27 08:40:52;;;;;;;6.10;1.80;;;7.50;99.90;;;;;;5021100;28;20205;-60
2023/02/27 08:43:22;;;;;;;4.23;1.77;;;8.50;99.90;;;;;;5027445;28;20208;-61
2023/02/27 08:45:50;;;;;;;3.83;1.80;;;8.50;99.90;;;;;;5029012;28;20215;-60
2023/02/27 08:48:17;;;;;;;3.47;1.40;;;8.60;99.90;;;;;;5030639;28;20207;-60
2023/02/27 08:50:45;;;;;;;3.77;1.87;;;8.80;99.90;;;;;;5031154;28;21100;-60
2023/02/27 08:53:12;;;;;;;3.70;1.60;;;8.30;99.90;;;;;;5033020;28;20261;-61
2023/02/27 08:55:39;;;;;;;5.13;1.93;;;8.50;99.90;;;;;;5032821;28;20558;-64
2023/02/27 08:58:06;;;;;;;5.77;1.90;;;8.30;99.90;;;;;;5022127;28;20226;-61
2023/02/27 09:00:33;;;;;;;3.40;1.37;;;8.30;99.90;;;;;;5021192;28;20210;-60
2023/02/27 09:03:00;;;;;;;2.58;1.63;;;8.10;99.90;;;;;;5032203;28;20465;-60
2023/02/27 09:05:28;;;;;;;3.57;1.80;;;8.60;99.90;;;;;;5030241;28;20234;-59
2023/02/27 09:07:54;;;;;;;4.77;1.80;;;8.30;99.90;;;;;;5023352;28;20610;-61
2023/02/27 09:10:21;;;;;;;3.93;1.57;;;8.20;99.90;;;;;;5033638;28;20270;-60
2023/02/27 09:12:48;;;;;;;2.60;1.50;;;8.80;99.90;;;;;;5032576;28;20257;-61
2023/02/27 09:15:16;;;;;;;4.70;1.73;;;8.50;99.90;;;;;;5029292;28;20240;-60
2023/02/27 09:17:42;;;;;;;5.30;1.57;;;8.70;99.90;;;;;;5028721;28;20289;-61
2023/02/27 09:20:11;;;;;;;6.70;2.23;;;8.60;99.90;;;;;;5032913;28;20203;-61
2023/02/27 09:22:38;;;;;;;2.17;1.53;;;8.70;99.90;;;;;;5032528;28;20254;-61
2023/02/27 09:25:05;;;;;;;4.23;1.70;;;9.10;99.90;;;;;;5034308;28;20205;-61
2023/02/27 09:27:33;;;;;;;2.70;1.40;;;9.00;99.90;;;;;;5027857;28;20212;-59
2023/02/27 09:30:00;;;;;;;3.30;1.87;;;9.50;99.90;;;;;;5030627;28;20198;-60
2023/02/27 09:32:27;;;;;;;2.85;1.60;;;9.40;99.90;;;;;;5029568;28;20498;-60
2023/02/27 09:34:54;;;;;;;4.13;1.80;;;9.50;99.90;;;;;;5032670;28;20223;-60
2023/02/27 09:37:23;;;;;;;2.30;1.63;;;9.60;99.90;;;;;;5029664;28;20586;-61
2023/02/27 09:39:51;;;;;;;5.43;2.33;;;9.00;99.90;;;;;;5021451;28;20208;-62
2023/02/27 09:42:22;;;;;;;3.00;1.47;;;9.80;99.90;;;;;;5029692;28;20254;-61
2023/02/27 09:44:52;;;;;;;2.83;1.37;;;9.60;99.90;;;;;;5029753;28;20250;-61
2023/02/27 09:47:36;;;;;;;2.90;1.57;;;9.00;99.90;;;;;;5029065;28;20212;-61
2023/02/27 09:50:07;;;;;;;3.30;1.43;;;9.00;99.90;;;;;;5032604;28;20961;-63
2023/02/27 09:52:36;;;;;;;5.03;1.60;;;9.10;99.90;;;;;;5027949;28;20261;-62
2023/02/27 09:55:16;;;;;;;3.40;1.63;;;8.10;99.90;;;;;;5031339;28;20210;-63
2023/02/27 09:57:50;;;;;;;1.87;1.10;;;9.20;99.90;;;;;;5033863;28;20247;-61
2023/02/27 10:00:49;;;;;;;2.70;1.27;;;9.00;99.90;;;;;;5029448;28;20210;-63
2023/02/27 10:03:45;;;;;;;1.47;1.20;;;8.60;99.90;;;;;;4999514;28;20215;-61
2023/02/27 10:06:21;;;;;;;3.50;1.20;;;8.20;99.90;;;;;;5033765;28;20205;-61
2023/02/27 10:09:19;;;;;;;2.37;1.20;;;9.00;99.90;;;;;;5029324;28;21882;-60
2023/02/27 10:11:52;;;;;;;1.77;0.90;;;8.20;99.90;;;;;;5030874;28;20315;-60
2023/02/27 10:14:29;;;;;;;5.03;1.30;;;8.20;99.90;;;;;;5030027;28;20203;-60
2023/02/27 10:16:57;;;;;;;4.57;1.37;;;9.00;99.90;;;;;;5024336;28;20324;-60
2023/02/27 10:19:32;;;;;;;3.47;1.30;;;9.40;99.90;;;;;;5032937;28;20204;-62
2023/02/27 10:22:03;;;;;;;2.80;1.20;;;8.60;99.90;;;;;;5030461;28;20311;-61
2023/02/27 10:24:36;;;;;;;3.37;1.10;;;9.40;99.90;;;;;;5032257;28;20285;-63
2023/02/27 10:27:12;;;;;;;4.13;1.27;;;9.00;99.90;;;;;;5030653;28;20215;-60
2023/02/27 10:29:40;;;;;;;1.93;0.93;;;9.00;99.90;;;;;;5031691;28;20729;-60
2023/02/27 10:32:28;;;;;;;2.53;1.00;;;9.20;99.90;;;;;;5031762;28;20333;-61
2023/02/27 10:35:08;;;;;;;2.53;1.20;;;8.80;99.90;;;;;;5030068;28;20194;-63
2023/02/27 10:37:40;;;;;;;4.80;1.33;;;9.20;99.90;;;;;;5032684;28;20246;-61
2023/02/27 10:40:13;;;;;;;1.43;0.90;;;8.50;99.90;;;;;;5024605;28;20199;-61
2023/02/27 10:42:41;;;;;;;5.50;1.10;;;9.00;99.90;;;;;;5027277;28;20226;-61
2023/02/27 10:45:15;;;;;;;3.80;1.43;;;8.50;99.90;;;;;;5028550;28;20211;-61
2023/02/27 10:47:43;;;;;;;1.40;1.17;;;9.10;99.90;;;;;;5027682;28;20206;-64
2023/02/27 10:50:19;;;;;;;2.80;1.47;;;9.40;99.90;;;;;;5030957;28;20587;-60
2023/02/27 10:52:55;;;;;;;3.57;1.30;;;9.50;99.90;;;;;;5031817;28;20349;-61
2023/02/27 10:55:26;;;;;;;2.57;1.30;;;9.70;99.90;;;;;;5032043;28;20529;-61
2023/02/27 10:57:55;;;;;;;2.73;1.10;;;9.40;99.90;;;;;;5026841;28;20288;-61
2023/02/27 11:00:39;;;;;;;5.23;1.20;;;9.00;99.90;;;;;;5025347;28;20232;-61
2023/02/27 11:03:20;;;;;;;3.90;1.27;;;8.60;99.90;;;;;;5018464;28;20626;-61
2023/02/27 11:05:56;;;;;;;1.87;1.10;;;8.80;99.90;;;;;;5025570;28;20223;-60
2023/02/27 11:08:26;;;;;;;2.83;1.33;;;9.10;99.90;;;;;;5026138;28;20225;-63
2023/02/27 11:10:56;;;;;;;1.43;1.00;;;9.20;99.90;;;;;;5029531;28;20251;-61
2023/02/27 11:13:24;;;;;;;3.33;1.20;;;9.10;99.90;;;;;;5026605;28;20193;-61
2023/02/27 11:16:11;;;;;;;2.93;1.57;;;8.50;99.90;;;;;;5029453;28;20298;-63
2023/02/27 11:18:47;;;;;;;3.00;1.50;;;9.30;99.90;;;;;;5029452;28;20290;-61
2023/02/27 11:21:18;;;;;;;3.57;0.90;;;9.60;99.90;;;;;;5032161;28;20583;-62
2023/02/27 11:23:54;;;;;;;1.77;1.00;;;9.80;99.90;;;;;;5031618;28;20208;-61
2023/02/27 11:26:26;;;;;;;2.50;0.80;;;9.50;99.90;;;;;;5032539;28;20231;-61
2023/02/27 11:29:05;;;;;;;2.40;1.00;;;9.20;99.90;;;;;;5030325;28;20624;-61
2023/02/27 11:31:34;;;;;;;2.57;1.07;;;9.30;99.90;;;;;;5034297;28;20600;-63
2023/02/27 11:34:03;;;;;;;2.43;1.03;;;9.40;99.90;;;;;;5033487;28;20218;-61
2023/02/27 11:36:45;;;;;;;1.37;0.70;;;8.90;99.90;;;;;;5038920;28;20256;-61
2023/02/27 11:39:33;;;;;;;3.83;1.23;;;9.20;99.90;;;;;;5034538;28;20202;-61
2023/02/27 11:42:16;;;;;;;5.80;1.27;;;9.40;99.90;;;;;;5033662;28;20212;-61
2023/02/27 11:44:55;;;;;;;2.87;1.00;;;9.60;99.90;;;;;;5029719;28;20234;-61
2023/02/27 11:47:27;;;;;;;3.03;1.10;;;9.20;99.90;;;;;;5035506;28;20196;-62
2023/02/27 11:50:09;;;;;;;2.27;1.23;;;8.70;99.90;;;;;;5029648;28;20205;-63
2023/02/27 11:52:36;;;;;;;2.60;1.00;;;8.20;99.90;;;;;;5024417;28;20568;-63
2023/02/27 11:55:13;;;;;;;1.67;1.30;;;8.20;99.90;;;;;;5026452;28;20202;-60
2023/02/27 11:57:42;;;;;;;1.03;0.87;;;8.10;99.90;;;;;;5035170;28;20204;-62
2023/02/27 12:00:21;;;;;;;1.53;0.90;;;7.80;99.90;;;;;;5023722;28;20198;-61
2023/02/27 12:03:26;;;;;;;3.37;0.97;;;8.30;99.90;;;;;;5035915;28;20299;-61
2023/02/27 12:05:59;;;;;;;2.43;1.03;;;8.70;99.90;;;;;;5032225;28;20598;-61
2023/02/27 12:09:11;;;;;;;3.60;1.20;;;8.50;99.90;;;;;;5031350;28;20317;-62
2023/02/27 12:11:42;;;;;;;3.07;0.87;;;8.20;99.90;;;;;;5035649;28;20223;-61
2023/02/27 12:14:43;;;;;;;3.03;1.23;;;7.80;99.90;;;;;;5037898;28;20637;-62
2023/02/27 12:17:35;;;;;;;1.70;0.77;;;7.60;99.90;;;;;;5032510;28;20225;-61
2023/02/27 12:20:21;;;;;;;1.57;0.90;;;7.60;99.90;;;;;;5033285;28;20226;-62
2023/02/27 12:22:52;;;;;;;0.60;0.60;;;7.60;99.90;;;;;;5032515;28;20290;-60
2023/02/27 12:25:45;;;;;;;0.90;0.80;;;7.50;99.90;;;;;;5038568;28;20208;-61
2023/02/27 12:28:34;;;;;;;3.30;0.90;;;7.70;99.90;;;;;;5034972;28;20220;-60
2023/02/27 12:31:30;;;;;;;1.33;0.77;;;7.70;99.90;;;;;;5027736;28;20230;-63
2023/02/27 12:34:03;;;;;;;2.23;0.83;;;7.60;99.90;;;;;;5027343;28;20219;-62
2023/02/27 12:36:30;;;;;;;1.37;0.93;;;7.50;99.90;;;;;;5027509;28;20215;-61
2023/02/27 12:38:57;;;;;;;2.53;0.80;;;7.50;99.90;;;;;;5030018;28;20233;-61
2023/02/27 12:41:26;;;;;;;2.77;0.93;;;7.60;99.90;;;;;;5031479;28;20305;-61
2023/02/27 12:44:17;;;;;;;1.93;1.30;;;7.50;99.90;;;;;;5032499;28;20852;-62
2023/02/27 12:46:50;;;;;;;1.73;0.80;;;7.60;99.90;;;;;;5034126;28;20291;-61
2023/02/27 12:49:42;;;;;;;3.30;0.70;;;7.70;99.90;;;;;;5028628;28;20305;-61
2023/02/27 12:52:26;;;;;;;1.37;0.90;;;7.40;99.90;;;;;;5027133;28;20218;-61
2023/02/27 12:55:22;;;;;;;2.83;1.27;;;7.20;99.90;;;;;;5030748;28;20667;-60
2023/02/27 12:58:16;;;;;;;2.07;0.70;;;8.10;99.90;;;;;;5036156;28;20244;-60
2023/02/27 13:00:58;;;;;;;1.67;0.90;;;8.90;99.90;;;;;;5031215;28;20274;-61
2023/02/27 13:03:38;;;;;;;2.60;0.90;;;9.60;99.90;;;;;;5027624;28;20340;-60
2023/02/27 13:06:26;;;;;;;1.77;1.00;;;8.80;99.90;;;;;;5027750;28;20249;-60
2023/02/27 13:09:02;;;;;;;1.87;0.80;;;8.60;99.90;;;;;;5027028;28;20750;-61
2023/02/27 13:11:35;;;;;;;2.47;0.90;;;9.20;99.90;;;;;;5030079;28;20259;-61
2023/02/27 13:14:40;;;;;;;2.30;0.87;;;9.20;99.90;;;;;;5029034;28;21592;-60
2023/02/27 13:17:30;;;;;;;2.03;0.57;;;9.50;99.90;;;;;;5038133;28;20648;-61
2023/02/27 13:20:33;;;;;;;2.57;0.60;;;10.30;99.90;;;;;;5024355;28;20285;-63
2023/02/27 13:23:28;;;;;;;1.43;0.90;;;10.50;99.90;;;;;;5014019;28;20548;-61
2023/02/27 13:25:57;;;;;;;0.90;0.70;;;9.70;99.90;;;;;;5020174;28;20270;-61
2023/02/27 13:28:27;;;;;;;3.50;0.90;;;9.00;99.90;;;;;;5016272;28;20252;-61
2023/02/27 13:31:13;;;;;;;1.50;1.07;;;8.50;99.90;;;;;;5024004;28;20377;-61
2023/02/27 13:33:54;;;;;;;1.60;0.87;;;8.40;99.90;;;;;;5023018;28;20210;-61
2023/02/27 13:36:37;;;;;;;1.80;0.90;;;8.10;99.90;;;;;;5022374;28;20225;-61